createdAt,value
2023-04-07T00:00:22.665Z,18.33
2023-04-07T00:01:22.767Z,18.47
2023-04-07T00:02:22.852Z,18.51
2023-04-07T00:03:22.937Z,18.45
2023-04-07T00:04:23.027Z,18.42
2023-04-07T00:05:22.937Z,18.45
2023-04-07T00:06:22.935Z,18.42
2023-04-07T00:07:23.011Z,18.45
2023-04-07T00:08:23.018Z,18.45
2023-04-07T00:09:23.111Z,18.41
2023-04-07T00:10:23.140Z,18.44
2023-04-07T00:11:23.177Z,18.42
2023-04-07T00:12:23.207Z,18.47
2023-04-07T00:13:23.261Z,18.50
2023-04-07T00:14:23.301Z,18.44
2023-04-07T00:15:23.350Z,18.35
2023-04-07T00:16:23.459Z,18.47
2023-04-07T00:17:23.482Z,18.47
2023-04-07T00:18:23.479Z,18.45
2023-04-07T00:19:23.563Z,18.38
2023-04-07T00:20:23.564Z,18.42
2023-04-07T00:21:23.580Z,18.39
2023-04-07T00:22:23.621Z,18.42
2023-04-07T00:23:23.688Z,18.39
2023-04-07T00:24:33.460Z,18.36
2023-04-07T00:25:24.746Z,18.39
2023-04-07T00:26:23.729Z,18.42
2023-04-07T00:27:23.692Z,18.45
2023-04-07T00:28:23.713Z,18.44
2023-04-07T00:29:23.731Z,18.39
2023-04-07T00:30:23.707Z,18.50
2023-04-07T00:31:23.694Z,18.42
2023-04-07T00:32:23.698Z,18.47
2023-04-07T00:33:23.663Z,18.42
2023-04-07T00:34:23.626Z,18.41
2023-04-07T00:35:23.692Z,18.42
2023-04-07T00:36:23.726Z,18.41
2023-04-07T00:37:23.722Z,18.39
2023-04-07T00:38:23.769Z,18.36
2023-04-07T00:39:23.890Z,18.36
2023-04-07T00:40:23.854Z,18.35
2023-04-07T00:41:23.918Z,18.38
2023-04-07T00:42:23.945Z,18.39
2023-04-07T00:43:23.970Z,18.36
2023-04-07T00:44:24.044Z,18.37
2023-04-07T00:45:24.058Z,18.39
2023-04-07T00:46:24.133Z,18.38
2023-04-07T00:47:24.190Z,18.42
2023-04-07T00:48:24.185Z,18.47
2023-04-07T00:49:24.317Z,18.42
2023-04-07T00:50:24.257Z,18.42
2023-04-07T00:51:24.303Z,18.39
2023-04-07T00:52:24.400Z,18.44
2023-04-07T00:53:24.416Z,18.47
2023-04-07T00:54:24.450Z,18.36
2023-04-07T00:55:24.519Z,18.39
2023-04-07T00:56:24.560Z,18.45
2023-04-07T00:57:24.563Z,18.45
2023-04-07T00:58:24.628Z,18.47
2023-04-07T00:59:24.650Z,18.48
2023-04-07T01:00:24.708Z,18.41
2023-04-07T01:01:24.812Z,18.39
2023-04-07T01:02:24.980Z,18.36
2023-04-07T01:03:25.066Z,18.31
2023-04-07T01:04:24.948Z,18.38
2023-04-07T01:05:24.916Z,18.39
2023-04-07T01:06:24.965Z,18.36
2023-04-07T01:07:25.030Z,18.36
2023-04-07T01:08:25.071Z,18.40
2023-04-07T01:09:25.133Z,18.44
2023-04-07T01:10:25.157Z,18.40
2023-04-07T01:11:25.224Z,18.42
2023-04-07T01:12:25.248Z,18.47
2023-04-07T01:13:25.274Z,18.40
2023-04-07T01:14:25.299Z,18.47
2023-04-07T01:15:25.394Z,18.40
2023-04-07T01:16:25.445Z,18.44
2023-04-07T01:17:25.459Z,18.43
2023-04-07T01:18:25.499Z,18.45
2023-04-07T01:19:25.499Z,18.43
2023-04-07T01:20:25.553Z,18.42
2023-04-07T01:21:25.617Z,18.42
2023-04-07T01:22:25.645Z,18.50
2023-04-07T01:23:25.671Z,18.50
2023-04-07T01:24:25.763Z,18.50
2023-04-07T01:25:25.748Z,18.47
2023-04-07T01:26:25.847Z,18.45
2023-04-07T01:27:25.895Z,18.40
2023-04-07T01:28:25.920Z,18.45
2023-04-07T01:29:25.911Z,18.45
2023-04-07T01:30:26.026Z,18.50
2023-04-07T01:31:26.079Z,18.45
2023-04-07T01:32:26.085Z,18.48
2023-04-07T01:33:26.092Z,18.45
2023-04-07T01:34:26.170Z,18.50
2023-04-07T01:35:26.213Z,18.45
2023-04-07T01:36:26.246Z,18.47
2023-04-07T01:37:26.324Z,18.47
2023-04-07T01:38:26.306Z,18.48
2023-04-07T01:39:26.361Z,18.48
2023-04-07T01:40:26.412Z,18.42
2023-04-07T01:41:26.443Z,18.47
2023-04-07T01:42:26.468Z,18.50
2023-04-07T01:43:26.532Z,18.47
2023-04-07T01:44:26.544Z,18.50
2023-04-07T01:45:26.590Z,18.47
2023-04-07T01:46:26.643Z,18.48
2023-04-07T01:47:26.775Z,18.43
2023-04-07T01:48:26.794Z,18.42
2023-04-07T01:49:26.800Z,18.45
2023-04-07T01:50:26.835Z,18.43
2023-04-07T01:51:26.872Z,18.39
2023-04-07T01:52:26.866Z,18.47
2023-04-07T01:53:26.932Z,18.43
2023-04-07T01:54:26.998Z,18.45
2023-04-07T01:55:27.037Z,18.39
2023-04-07T01:56:27.080Z,18.45
2023-04-07T01:57:27.120Z,18.40
2023-04-07T01:58:27.172Z,18.42
2023-04-07T01:59:27.209Z,18.45
2023-04-07T02:00:27.225Z,18.45
2023-04-07T02:01:27.397Z,18.43
2023-04-07T02:02:27.438Z,18.40
2023-04-07T02:03:27.492Z,18.40
2023-04-07T02:04:27.413Z,18.39
2023-04-07T02:05:27.469Z,18.34
2023-04-07T02:06:27.515Z,18.36
2023-04-07T02:07:27.529Z,18.39
2023-04-07T02:08:27.548Z,18.42
2023-04-07T02:09:27.624Z,18.50
2023-04-07T02:10:27.657Z,18.47
2023-04-07T02:11:27.706Z,18.48
2023-04-07T02:12:27.748Z,18.50
2023-04-07T02:13:27.820Z,18.50
2023-04-07T02:14:27.863Z,18.42
2023-04-07T02:15:27.912Z,18.43
2023-04-07T02:16:27.959Z,18.46
2023-04-07T02:17:27.992Z,18.42
2023-04-07T02:18:28.050Z,18.43
2023-04-07T02:19:28.083Z,18.47
2023-04-07T02:20:28.116Z,18.45
2023-04-07T02:21:28.145Z,18.47
2023-04-07T02:22:28.173Z,18.45
2023-04-07T02:23:28.263Z,18.50
2023-04-07T02:24:28.269Z,18.51
2023-04-07T02:25:28.331Z,18.48
2023-04-07T02:26:28.354Z,18.49
2023-04-07T02:27:28.414Z,18.53
2023-04-07T02:28:28.453Z,18.53
2023-04-07T02:29:28.490Z,18.48
2023-04-07T02:30:28.527Z,18.54
2023-04-07T02:31:28.611Z,18.47
2023-04-07T02:32:28.655Z,18.50
2023-04-07T02:33:28.648Z,18.48
2023-04-07T02:34:28.675Z,18.48
2023-04-07T02:35:28.758Z,18.50
2023-04-07T02:36:28.788Z,18.45
2023-04-07T02:37:28.824Z,18.45
2023-04-07T02:38:28.880Z,18.53
2023-04-07T02:39:28.907Z,18.47
2023-04-07T02:40:28.951Z,18.53
2023-04-07T02:41:29.000Z,18.50
2023-04-07T02:42:29.027Z,18.51
2023-04-07T02:43:29.069Z,18.51
2023-04-07T02:44:29.122Z,18.53
2023-04-07T02:45:29.173Z,18.53
2023-04-07T02:46:29.283Z,18.57
2023-04-07T02:47:29.261Z,18.50
2023-04-07T02:48:29.252Z,18.53
2023-04-07T02:49:29.311Z,18.54
2023-04-07T02:50:29.391Z,18.53
2023-04-07T02:51:29.469Z,18.56
2023-04-07T02:52:29.465Z,18.57
2023-04-07T02:53:29.522Z,18.54
2023-04-07T02:54:29.540Z,18.62
2023-04-07T02:55:29.580Z,18.59
2023-04-07T02:56:29.634Z,18.57
2023-04-07T02:57:29.678Z,18.54
2023-04-07T02:58:29.714Z,18.62
2023-04-07T02:59:29.733Z,18.62
2023-04-07T03:00:29.778Z,18.56
2023-04-07T03:01:29.914Z,18.63
2023-04-07T03:02:29.955Z,18.54
2023-04-07T03:03:30.106Z,18.65
2023-04-07T03:04:30.065Z,18.55
2023-04-07T03:05:30.025Z,18.55
2023-04-07T03:06:30.044Z,18.63
2023-04-07T03:07:30.105Z,18.63
2023-04-07T03:08:30.128Z,18.68
2023-04-07T03:09:30.161Z,18.60
2023-04-07T03:10:30.251Z,18.70
2023-04-07T03:11:30.268Z,18.65
2023-04-07T03:12:30.289Z,18.68
2023-04-07T03:13:30.346Z,18.68
2023-04-07T03:14:30.420Z,18.65
2023-04-07T03:15:30.473Z,18.63
2023-04-07T03:16:30.552Z,18.65
2023-04-07T03:17:30.561Z,18.70
2023-04-07T03:18:30.586Z,18.72
2023-04-07T03:19:30.625Z,18.68
2023-04-07T03:20:30.679Z,18.69
2023-04-07T03:21:30.738Z,18.64
2023-04-07T03:22:30.746Z,18.66
2023-04-07T03:23:30.827Z,18.70
2023-04-07T03:24:30.846Z,18.75
2023-04-07T03:25:30.918Z,18.72
2023-04-07T03:26:30.928Z,18.72
2023-04-07T03:27:30.967Z,18.72
2023-04-07T03:28:31.009Z,18.71
2023-04-07T03:29:31.072Z,18.71
2023-04-07T03:30:31.123Z,18.74
2023-04-07T03:31:31.152Z,18.75
2023-04-07T03:32:31.197Z,18.74
2023-04-07T03:33:31.225Z,18.75
2023-04-07T03:34:31.295Z,18.72
2023-04-07T03:35:31.336Z,18.72
2023-04-07T03:36:31.405Z,18.72
2023-04-07T03:37:31.415Z,18.72
2023-04-07T03:38:31.406Z,18.74
2023-04-07T03:39:31.470Z,18.71
2023-04-07T03:40:31.494Z,18.74
2023-04-07T03:41:31.595Z,18.71
2023-04-07T03:42:31.607Z,18.77
2023-04-07T03:43:31.652Z,18.71
2023-04-07T03:44:31.715Z,18.77
2023-04-07T03:45:31.710Z,18.75
2023-04-07T03:46:31.815Z,18.80
2023-04-07T03:47:31.839Z,18.74
2023-04-07T03:48:31.857Z,18.77
2023-04-07T03:49:31.901Z,18.77
2023-04-07T03:50:31.953Z,18.77
2023-04-07T03:51:31.979Z,18.77
2023-04-07T03:52:32.057Z,18.78
2023-04-07T03:53:32.098Z,18.78
2023-04-07T03:54:32.139Z,18.83
2023-04-07T03:55:32.150Z,18.82
2023-04-07T03:56:32.178Z,18.83
2023-04-07T03:57:32.227Z,18.82
2023-04-07T03:58:32.267Z,18.78
2023-04-07T03:59:32.311Z,18.79
2023-04-07T04:00:32.352Z,18.82
2023-04-07T04:01:32.483Z,18.75
2023-04-07T04:02:32.472Z,18.77
2023-04-07T04:03:32.703Z,18.79
2023-04-07T04:04:32.529Z,18.72
2023-04-07T04:05:32.592Z,18.74
2023-04-07T04:06:32.646Z,18.75
2023-04-07T04:07:32.690Z,18.77
2023-04-07T04:08:32.708Z,18.83
2023-04-07T04:09:32.754Z,18.80
2023-04-07T04:10:32.803Z,18.80
2023-04-07T04:11:32.880Z,18.80
2023-04-07T04:12:32.890Z,18.83
2023-04-07T04:13:32.912Z,18.75
2023-04-07T04:14:32.937Z,18.78
2023-04-07T04:15:33.050Z,18.75
2023-04-07T04:16:33.085Z,18.78
2023-04-07T04:17:33.147Z,18.78
2023-04-07T04:18:33.116Z,18.83
2023-04-07T04:19:33.201Z,18.81
2023-04-07T04:20:33.210Z,18.75
2023-04-07T04:21:33.257Z,18.83
2023-04-07T04:22:33.302Z,18.84
2023-04-07T04:23:33.369Z,18.75
2023-04-07T04:24:33.401Z,18.83
2023-04-07T04:25:33.405Z,18.80
2023-04-07T04:26:33.447Z,18.80
2023-04-07T04:27:33.601Z,18.80
2023-04-07T04:28:33.558Z,18.83
2023-04-07T04:29:33.612Z,18.77
2023-04-07T04:30:33.674Z,18.81
2023-04-07T04:31:33.712Z,18.75
2023-04-07T04:32:33.780Z,18.78
2023-04-07T04:33:33.793Z,18.75
2023-04-07T04:34:33.796Z,18.77
2023-04-07T04:35:33.857Z,18.63
2023-04-07T04:36:33.895Z,18.71
2023-04-07T04:37:33.939Z,18.65
2023-04-07T04:38:33.987Z,18.60
2023-04-07T04:39:34.037Z,18.57
2023-04-07T04:40:34.064Z,18.31
2023-04-07T04:41:34.093Z,18.33
2023-04-07T04:42:34.148Z,17.79
2023-04-07T04:43:34.152Z,17.81
2023-04-07T04:44:34.243Z,17.67
2023-04-07T04:45:34.265Z,17.95
2023-04-07T04:46:34.398Z,17.67
2023-04-07T04:47:34.331Z,17.50
2023-04-07T04:48:34.382Z,18.21
2023-04-07T04:49:34.433Z,18.24
2023-04-07T04:50:34.494Z,18.07
2023-04-07T04:51:34.530Z,18.18
2023-04-07T04:52:34.554Z,17.95
2023-04-07T04:53:34.656Z,17.64
2023-04-07T04:54:34.655Z,17.43
2023-04-07T04:55:34.685Z,17.60
2023-04-07T04:56:34.793Z,17.43
2023-04-07T04:57:34.792Z,17.48
2023-04-07T04:58:34.844Z,17.40
2023-04-07T04:59:34.904Z,17.60
2023-04-07T05:00:34.982Z,17.34
2023-04-07T05:01:42.934Z,17.46
2023-04-07T05:02:35.144Z,17.35
2023-04-07T05:03:35.121Z,17.31
2023-04-07T05:04:35.238Z,17.28
2023-04-07T05:05:34.963Z,17.54
2023-04-07T05:06:34.986Z,17.17
2023-04-07T05:07:34.936Z,17.25
2023-04-07T05:08:34.952Z,17.13
2023-04-07T05:09:34.961Z,17.17
2023-04-07T05:10:34.965Z,17.40
2023-04-07T05:11:34.968Z,17.48
2023-04-07T05:12:35.019Z,17.31
2023-04-07T05:13:35.047Z,17.57
2023-04-07T05:14:35.134Z,17.78
2023-04-07T05:15:35.128Z,17.54
2023-04-07T05:16:35.277Z,17.58
2023-04-07T05:17:35.252Z,17.25
2023-04-07T05:18:35.275Z,17.20
2023-04-07T05:19:35.334Z,17.17
2023-04-07T05:20:35.394Z,17.23
2023-04-07T05:21:35.448Z,17.19
2023-04-07T05:22:35.505Z,17.13
2023-04-07T05:23:35.542Z,17.43
2023-04-07T05:24:35.570Z,17.34
2023-04-07T05:25:35.626Z,17.28
2023-04-07T05:26:35.686Z,17.14
2023-04-07T05:27:35.719Z,17.17
2023-04-07T05:28:35.737Z,17.77
2023-04-07T05:29:35.822Z,17.57
2023-04-07T05:30:35.850Z,18.21
2023-04-07T05:31:35.955Z,17.77
2023-04-07T05:32:35.962Z,17.48
2023-04-07T05:33:35.981Z,17.36
2023-04-07T05:34:35.982Z,17.51
2023-04-07T05:35:36.044Z,17.46
2023-04-07T05:36:36.109Z,17.36
2023-04-07T05:37:36.173Z,17.22
2023-04-07T05:38:36.178Z,17.11
2023-04-07T05:39:36.194Z,17.50
2023-04-07T05:40:37.420Z,17.57
2023-04-07T05:41:36.294Z,17.88
2023-04-07T05:42:36.360Z,18.03
2023-04-07T05:43:36.375Z,17.45
2023-04-07T05:44:36.405Z,17.26
2023-04-07T05:45:36.614Z,17.91
2023-04-07T05:46:44.367Z,17.83
2023-04-07T05:47:36.605Z,17.45
2023-04-07T05:48:36.499Z,17.46
2023-04-07T05:49:36.518Z,17.68
2023-04-07T05:50:36.526Z,17.80
2023-04-07T05:51:36.507Z,17.83
2023-04-07T05:52:37.641Z,17.71
2023-04-07T05:53:36.483Z,18.31
2023-04-07T05:54:36.461Z,18.53
2023-04-07T05:55:36.426Z,18.69
2023-04-07T05:56:36.488Z,18.78
2023-04-07T05:57:36.445Z,18.78
2023-04-07T05:58:36.517Z,18.81
2023-04-07T05:59:36.561Z,18.93
2023-04-07T06:00:36.655Z,18.90
2023-04-07T06:01:36.733Z,18.79
2023-04-07T06:02:36.795Z,18.74
2023-04-07T06:03:36.998Z,18.59
2023-04-07T06:04:36.808Z,18.50
2023-04-07T06:05:38.255Z,18.49
2023-04-07T06:06:37.028Z,18.44
2023-04-07T06:07:37.014Z,18.49
2023-04-07T06:08:37.074Z,18.46
2023-04-07T06:09:37.077Z,18.36
2023-04-07T06:10:37.083Z,18.38
2023-04-07T06:11:37.108Z,18.30
2023-04-07T06:12:37.134Z,18.34
2023-04-07T06:13:37.126Z,18.30
2023-04-07T06:14:37.105Z,18.25
2023-04-07T06:15:37.123Z,18.21
2023-04-07T06:16:37.177Z,18.21
2023-04-07T06:17:37.158Z,18.16
2023-04-07T06:18:37.069Z,18.22
2023-04-07T06:19:37.098Z,18.40
2023-04-07T06:20:37.113Z,18.54
2023-04-07T06:21:37.117Z,18.80
2023-04-07T06:22:37.165Z,18.93
2023-04-07T06:23:37.178Z,19.27
2023-04-07T06:24:37.192Z,19.59
2023-04-07T06:25:37.161Z,19.67
2023-04-07T06:26:37.220Z,20.04
2023-04-07T06:27:37.244Z,20.11
2023-04-07T06:28:37.259Z,20.37
2023-04-07T06:29:37.258Z,20.48
2023-04-07T06:30:37.305Z,20.54
2023-04-07T06:31:37.313Z,20.92
2023-04-07T06:32:37.377Z,21.67
2023-04-07T06:33:37.362Z,22.19
2023-04-07T06:34:37.343Z,22.58
2023-04-07T06:35:37.434Z,22.84
2023-04-07T06:36:37.464Z,22.90
2023-04-07T06:37:37.431Z,21.78
2023-04-07T06:38:37.457Z,20.92
2023-04-07T06:39:37.499Z,20.66
2023-04-07T06:40:37.509Z,20.40
2023-04-07T06:41:37.589Z,20.29
2023-04-07T06:42:37.623Z,20.51
2023-04-07T06:43:37.675Z,20.29
2023-04-07T06:44:37.842Z,20.78
2023-04-07T06:45:37.800Z,20.85
2023-04-07T06:46:37.913Z,20.85
2023-04-07T06:47:37.911Z,20.72
2023-04-07T06:48:37.836Z,20.71
2023-04-07T06:49:37.851Z,20.74
2023-04-07T06:50:37.823Z,20.84
2023-04-07T06:51:37.836Z,21.11
2023-04-07T06:52:37.830Z,21.25
2023-04-07T06:53:37.806Z,21.24
2023-04-07T06:54:37.805Z,20.80
2023-04-07T06:55:37.812Z,20.54
2023-04-07T06:56:37.836Z,20.23
2023-04-07T06:57:37.866Z,20.28
2023-04-07T06:58:37.910Z,20.00
2023-04-07T06:59:37.892Z,19.98
2023-04-07T07:00:37.966Z,20.06
2023-04-07T07:01:38.229Z,20.07
2023-04-07T07:02:38.193Z,20.18
2023-04-07T07:03:38.120Z,20.10
2023-04-07T07:04:38.085Z,20.10
2023-04-07T07:05:38.132Z,20.28
2023-04-07T07:06:38.158Z,20.23
2023-04-07T07:07:38.723Z,20.22
2023-04-07T07:08:38.261Z,20.29
2023-04-07T07:09:38.246Z,20.33
2023-04-07T07:10:38.284Z,20.39
2023-04-07T07:11:39.157Z,20.84
2023-04-07T07:12:38.402Z,20.66
2023-04-07T07:13:38.363Z,20.60
2023-04-07T07:14:38.359Z,20.68
2023-04-07T07:15:38.444Z,20.68
2023-04-07T07:16:38.407Z,20.64
2023-04-07T07:17:38.542Z,20.48
2023-04-07T07:18:38.501Z,20.15
2023-04-07T07:19:38.506Z,20.11
2023-04-07T07:20:38.576Z,20.03
2023-04-07T07:21:38.620Z,20.29
2023-04-07T07:22:38.695Z,20.34
2023-04-07T07:23:38.694Z,20.27
2023-04-07T07:24:38.741Z,20.30
2023-04-07T07:25:38.763Z,20.46
2023-04-07T07:26:38.803Z,20.65
2023-04-07T07:27:38.816Z,20.34
2023-04-07T07:28:38.835Z,20.47
2023-04-07T07:29:38.818Z,20.64
2023-04-07T07:30:38.831Z,20.35
2023-04-07T07:31:38.900Z,20.44
2023-04-07T07:32:39.045Z,20.29
2023-04-07T07:33:38.908Z,20.25
2023-04-07T07:34:38.941Z,20.05
2023-04-07T07:35:38.957Z,19.87
2023-04-07T07:36:38.990Z,19.92
2023-04-07T07:37:39.032Z,19.90
2023-04-07T07:38:39.041Z,19.42
2023-04-07T07:39:39.051Z,19.64
2023-04-07T07:40:39.097Z,19.72
2023-04-07T07:41:39.177Z,19.73
2023-04-07T07:42:39.182Z,19.43
2023-04-07T07:43:39.191Z,19.88
2023-04-07T07:44:39.269Z,19.62
2023-04-07T07:45:39.521Z,19.49
2023-04-07T07:46:39.380Z,19.87
2023-04-07T07:47:39.343Z,19.96
2023-04-07T07:48:39.314Z,19.83
2023-04-07T07:49:39.318Z,19.99
2023-04-07T07:50:39.334Z,19.71
2023-04-07T07:51:39.341Z,19.94
2023-04-07T07:52:39.352Z,19.98
2023-04-07T07:53:39.348Z,19.89
2023-04-07T07:54:39.373Z,19.84
2023-04-07T07:55:39.322Z,20.04
2023-04-07T07:56:39.386Z,20.03
2023-04-07T07:57:39.434Z,20.21
2023-04-07T07:58:39.437Z,20.51
2023-04-07T07:59:39.437Z,20.39
2023-04-07T08:00:39.462Z,20.62
2023-04-07T08:01:39.514Z,20.71
2023-04-07T08:02:39.587Z,20.46
2023-04-07T08:03:39.618Z,20.53
2023-04-07T08:04:39.616Z,20.45
2023-04-07T08:05:39.597Z,20.77
2023-04-07T08:06:39.631Z,21.08
2023-04-07T08:07:39.647Z,20.89
2023-04-07T08:08:39.659Z,21.02
2023-04-07T08:09:39.683Z,20.86
2023-04-07T08:10:40.306Z,20.65
2023-04-07T08:11:39.732Z,21.01
2023-04-07T08:12:39.792Z,20.92
2023-04-07T08:13:39.791Z,20.59
2023-04-07T08:14:39.885Z,21.02
2023-04-07T08:15:39.868Z,20.76
2023-04-07T08:16:40.011Z,20.87
2023-04-07T08:17:40.038Z,21.22
2023-04-07T08:18:39.978Z,21.02
2023-04-07T08:19:39.993Z,20.91
2023-04-07T08:20:40.068Z,20.59
2023-04-07T08:21:40.070Z,21.24
2023-04-07T08:22:40.140Z,21.21
2023-04-07T08:23:40.132Z,21.34
2023-04-07T08:24:40.228Z,21.27
2023-04-07T08:25:40.237Z,21.12
2023-04-07T08:26:40.300Z,20.80
2023-04-07T08:27:40.294Z,21.03
2023-04-07T08:28:40.355Z,21.33
2023-04-07T08:29:40.342Z,21.61
2023-04-07T08:30:40.389Z,22.20
2023-04-07T08:31:40.601Z,21.37
2023-04-07T08:32:40.492Z,21.59
2023-04-07T08:33:40.500Z,21.40
2023-04-07T08:34:40.536Z,21.64
2023-04-07T08:35:40.522Z,21.35
2023-04-07T08:36:41.893Z,21.14
2023-04-07T08:37:40.570Z,20.75
2023-04-07T08:38:40.625Z,21.13
2023-04-07T08:39:40.629Z,21.30
2023-04-07T08:40:40.688Z,21.39
2023-04-07T08:41:40.714Z,21.68
2023-04-07T08:42:40.778Z,22.00
2023-04-07T08:43:40.793Z,22.76
2023-04-07T08:44:40.821Z,21.89
2023-04-07T08:45:40.825Z,22.35
2023-04-07T08:46:40.987Z,23.57
2023-04-07T08:47:40.957Z,23.78
2023-04-07T08:48:40.940Z,23.70
2023-04-07T08:49:40.955Z,23.59
2023-04-07T08:50:41.874Z,22.75
2023-04-07T08:51:40.991Z,22.65
2023-04-07T08:52:41.046Z,22.83
2023-04-07T08:53:40.997Z,22.55
2023-04-07T08:54:40.997Z,22.81
2023-04-07T08:55:40.959Z,23.57
2023-04-07T08:56:42.223Z,23.53
2023-04-07T08:57:40.981Z,23.53
2023-04-07T08:58:41.099Z,23.54
2023-04-07T08:59:41.183Z,23.79
2023-04-07T09:00:41.167Z,23.74
2023-04-07T09:01:41.207Z,23.37
2023-04-07T09:02:41.289Z,22.76
2023-04-07T09:03:41.222Z,22.44
2023-04-07T09:04:41.209Z,22.00
2023-04-07T09:05:41.299Z,21.64
2023-04-07T09:06:41.302Z,21.47
2023-04-07T09:07:41.399Z,21.22
2023-04-07T09:08:41.402Z,21.21
2023-04-07T09:09:49.096Z,20.89
2023-04-07T09:10:41.426Z,20.87
2023-04-07T09:11:41.420Z,20.72
2023-04-07T09:12:41.436Z,20.71
2023-04-07T09:13:41.367Z,20.73
2023-04-07T09:14:41.398Z,20.61
2023-04-07T09:15:41.365Z,20.53
2023-04-07T09:16:41.363Z,20.35
2023-04-07T09:17:41.437Z,20.28
2023-04-07T09:18:41.393Z,20.17
2023-04-07T09:19:41.372Z,20.07
2023-04-07T09:20:41.333Z,20.07
2023-04-07T09:21:41.350Z,20.06
2023-04-07T09:22:41.349Z,20.00
2023-04-07T09:23:41.319Z,19.97
2023-04-07T09:24:41.310Z,19.88
2023-04-07T09:25:41.296Z,19.84
2023-04-07T09:26:41.310Z,19.81
2023-04-07T09:27:41.337Z,19.83
2023-04-07T09:28:41.302Z,19.72
2023-04-07T09:29:41.304Z,19.69
2023-04-07T09:30:41.329Z,19.66
2023-04-07T09:31:41.336Z,19.58
2023-04-07T09:32:41.450Z,19.54
2023-04-07T09:33:41.272Z,19.48
2023-04-07T09:34:41.351Z,19.42
2023-04-07T09:35:41.268Z,19.36
2023-04-07T09:36:41.224Z,19.36
2023-04-07T09:37:41.222Z,19.30
2023-04-07T09:38:41.192Z,19.26
2023-04-07T09:39:41.195Z,19.26
2023-04-07T09:40:41.204Z,19.15
2023-04-07T09:41:41.291Z,19.14
2023-04-07T09:42:41.219Z,19.08
2023-04-07T09:43:41.327Z,19.15
2023-04-07T09:44:41.331Z,19.14
2023-04-07T09:45:41.432Z,19.14
2023-04-07T09:46:41.513Z,19.00
2023-04-07T09:47:41.573Z,19.02
2023-04-07T09:48:41.595Z,19.03
2023-04-07T09:49:41.687Z,19.03
2023-04-07T09:50:41.806Z,18.96
2023-04-07T09:51:41.788Z,18.96
2023-04-07T09:52:41.846Z,18.96
2023-04-07T09:53:41.910Z,18.99
2023-04-07T09:54:41.976Z,18.96
2023-04-07T09:55:42.044Z,18.88
2023-04-07T09:56:42.064Z,18.86
2023-04-07T09:57:42.219Z,18.88
2023-04-07T09:58:42.200Z,18.87
2023-04-07T09:59:42.297Z,18.93
2023-04-07T10:00:42.420Z,18.90
2023-04-07T10:01:42.446Z,18.89
2023-04-07T10:02:42.500Z,18.98
2023-04-07T10:03:42.529Z,19.11
2023-04-07T10:04:42.575Z,19.27
2023-04-07T10:05:42.625Z,19.24
2023-04-07T10:06:42.695Z,19.13
2023-04-07T10:07:42.968Z,19.19
2023-04-07T10:08:42.834Z,19.09
2023-04-07T10:09:42.864Z,18.99
2023-04-07T10:10:42.967Z,19.16
2023-04-07T10:11:43.004Z,19.26
2023-04-07T10:12:43.031Z,19.23
2023-04-07T10:13:43.084Z,19.42
2023-04-07T10:14:43.144Z,19.24
2023-04-07T10:15:43.193Z,19.24
2023-04-07T10:16:50.862Z,19.21
2023-04-07T10:17:43.249Z,19.23
2023-04-07T10:18:43.219Z,19.30
2023-04-07T10:19:43.194Z,19.09
2023-04-07T10:20:43.154Z,19.23
2023-04-07T10:21:43.201Z,19.27
2023-04-07T10:22:43.206Z,19.17
2023-04-07T10:23:43.183Z,19.41
2023-04-07T10:24:43.163Z,19.58
2023-04-07T10:25:43.128Z,19.46
2023-04-07T10:26:43.168Z,19.28
2023-04-07T10:27:43.139Z,19.38
2023-04-07T10:28:43.166Z,19.28
2023-04-07T10:29:43.141Z,19.15
2023-04-07T10:30:43.255Z,19.28
2023-04-07T10:31:43.235Z,19.53
2023-04-07T10:32:43.344Z,20.51
2023-04-07T10:33:43.346Z,21.43
2023-04-07T10:34:43.425Z,21.27
2023-04-07T10:35:43.495Z,21.16
2023-04-07T10:36:43.443Z,20.42
2023-04-07T10:37:43.474Z,20.48
2023-04-07T10:38:43.511Z,20.83
2023-04-07T10:39:43.430Z,20.87
2023-04-07T10:40:43.480Z,20.73
2023-04-07T10:41:43.529Z,20.73
2023-04-07T10:42:43.557Z,20.79
2023-04-07T10:43:43.560Z,20.49
2023-04-07T10:44:43.622Z,20.45
2023-04-07T10:45:43.576Z,20.47
2023-04-07T10:46:43.642Z,20.43
2023-04-07T10:47:43.659Z,20.26
2023-04-07T10:48:43.695Z,20.24
2023-04-07T10:49:43.746Z,20.05
2023-04-07T10:50:43.746Z,20.11
2023-04-07T10:51:43.755Z,19.87
2023-04-07T10:52:43.810Z,19.85
2023-04-07T10:53:43.867Z,20.03
2023-04-07T10:54:43.922Z,20.08
2023-04-07T10:55:43.932Z,20.05
2023-04-07T10:56:43.940Z,20.12
2023-04-07T10:57:44.004Z,20.14
2023-04-07T10:58:44.055Z,20.02
2023-04-07T10:59:44.047Z,19.87
2023-04-07T11:00:44.082Z,19.82
2023-04-07T11:01:44.092Z,19.67
2023-04-07T11:02:44.284Z,19.53
2023-04-07T11:03:44.131Z,19.52
2023-04-07T11:04:44.313Z,19.43
2023-04-07T11:05:44.105Z,19.34
2023-04-07T11:06:44.109Z,19.36
2023-04-07T11:07:51.800Z,19.30
2023-04-07T11:08:44.786Z,19.21
2023-04-07T11:09:44.152Z,19.17
2023-04-07T11:10:44.131Z,19.05
2023-04-07T11:11:44.120Z,19.06
2023-04-07T11:12:44.156Z,19.02
2023-04-07T11:13:44.147Z,19.03
2023-04-07T11:14:44.108Z,18.91
2023-04-07T11:15:44.144Z,18.84
2023-04-07T11:16:44.087Z,18.88
2023-04-07T11:17:44.116Z,18.77
2023-04-07T11:18:44.193Z,18.75
2023-04-07T11:19:44.260Z,18.71
2023-04-07T11:20:45.976Z,18.71
2023-04-07T11:21:44.427Z,18.75
2023-04-07T11:22:44.381Z,18.72
2023-04-07T11:23:44.489Z,18.75
2023-04-07T11:24:44.524Z,18.62
2023-04-07T11:25:44.570Z,18.63
2023-04-07T11:26:44.639Z,18.55
2023-04-07T11:27:44.691Z,18.54
2023-04-07T11:28:44.769Z,18.50
2023-04-07T11:29:44.760Z,18.50
2023-04-07T11:30:44.915Z,18.40
2023-04-07T11:31:45.004Z,18.47
2023-04-07T11:32:44.966Z,18.47
2023-04-07T11:33:45.010Z,18.42
2023-04-07T11:34:45.068Z,18.45
2023-04-07T11:35:45.149Z,18.39
2023-04-07T11:36:45.192Z,18.43
2023-04-07T11:37:45.218Z,18.41
2023-04-07T11:38:47.161Z,18.44
2023-04-07T11:39:45.308Z,18.41
2023-04-07T11:40:45.376Z,18.40
2023-04-07T11:41:45.442Z,18.48
2023-04-07T11:42:45.483Z,18.42
2023-04-07T11:43:45.638Z,18.41
2023-04-07T11:44:45.588Z,18.43
2023-04-07T11:45:45.619Z,18.44
2023-04-07T11:46:45.740Z,18.44
2023-04-07T11:47:45.785Z,18.41
2023-04-07T11:48:45.813Z,18.39
2023-04-07T11:49:45.847Z,18.35
2023-04-07T11:50:45.889Z,18.39
2023-04-07T11:51:45.941Z,18.41
2023-04-07T11:52:46.004Z,18.39
2023-04-07T11:53:46.388Z,18.38
2023-04-07T11:54:46.149Z,18.33
2023-04-07T11:55:46.186Z,18.28
2023-04-07T11:56:46.213Z,18.33
2023-04-07T11:57:46.272Z,18.35
2023-04-07T11:58:46.350Z,18.32
2023-04-07T11:59:46.367Z,18.30
2023-04-07T12:00:46.428Z,18.26
2023-04-07T12:01:46.575Z,18.32
2023-04-07T12:02:46.711Z,18.53
2023-04-07T12:03:46.861Z,18.44
2023-04-07T12:04:46.801Z,18.35
2023-04-07T12:05:46.702Z,18.35
2023-04-07T12:06:46.716Z,18.39
2023-04-07T12:07:46.786Z,18.41
2023-04-07T12:08:46.886Z,18.41
2023-04-07T12:09:46.892Z,18.77
2023-04-07T12:10:46.954Z,18.59
2023-04-07T12:11:46.999Z,18.44
2023-04-07T12:12:47.109Z,18.42
2023-04-07T12:13:47.424Z,18.40
2023-04-07T12:14:47.218Z,18.38
2023-04-07T12:15:47.258Z,18.41
2023-04-07T12:16:47.333Z,18.38
2023-04-07T12:17:47.533Z,18.38
2023-04-07T12:18:47.425Z,18.38
2023-04-07T12:19:47.433Z,18.39
2023-04-07T12:20:47.531Z,18.41
2023-04-07T12:21:47.548Z,18.35
2023-04-07T12:22:47.592Z,18.35
2023-04-07T12:23:47.873Z,18.41
2023-04-07T12:24:47.716Z,18.36
2023-04-07T12:25:47.777Z,18.38
2023-04-07T12:26:47.781Z,18.44
2023-04-07T12:27:47.871Z,18.42
2023-04-07T12:28:47.922Z,18.41
2023-04-07T12:29:47.942Z,18.41
2023-04-07T12:30:48.011Z,18.41
2023-04-07T12:31:50.623Z,18.35
2023-04-07T12:32:48.072Z,18.38
2023-04-07T12:33:48.298Z,18.33
2023-04-07T12:34:48.045Z,18.30
2023-04-07T12:35:48.074Z,18.35
2023-04-07T12:36:47.997Z,18.33
2023-04-07T12:37:50.043Z,18.38
2023-04-07T12:38:47.987Z,18.39
2023-04-07T12:39:47.970Z,18.39
2023-04-07T12:40:47.996Z,18.36
2023-04-07T12:41:47.988Z,18.41
2023-04-07T12:42:48.004Z,18.45
2023-04-07T12:43:48.316Z,18.32
2023-04-07T12:44:47.976Z,18.35
2023-04-07T12:45:48.128Z,18.42
2023-04-07T12:46:48.162Z,18.38
2023-04-07T12:47:48.199Z,18.42
2023-04-07T12:48:48.249Z,18.39
2023-04-07T12:49:49.689Z,18.38
2023-04-07T12:50:48.324Z,18.36
2023-04-07T12:51:48.327Z,18.41
2023-04-07T12:52:48.432Z,18.38